Albertville, Minnesota
Current Conditions -  °F | °C
As of 10:15 PM on Tuesday 25 Nov 2014 (Local Time) from KCFE Reporting Station
Overcast Overcast  
Wind Chill: 18°   Ceiling: 5000
Heat Index: 25°   Visibility: 10mi
Dew Point: 16°   Wind: 6mph
Humidity: 69%   Direction: 110°ESE
Pressure: 30.01"   Gusts: NA
Location:  45.24°N, 93.65°W
Report Text: KCFE 260415Z AUTO 11005KT 10SM OVC050 M04/M09 A3001 RMK AO2 T10411090
Loading
Personal Weather Stations






























Interactive Weather Map New forecast layout! Learn more

10-Day Weather Forecast

Advertisements
Track Severe Weather on mobile